createdAt,value
2022-11-13T00:00:05.702Z,102097.63
2022-11-13T00:02:34.281Z,102100.44
2022-11-13T00:05:00.717Z,102094.84
2022-11-13T00:07:27.962Z,102090.41
2022-11-13T00:09:55.614Z,102098.75
2022-11-13T00:12:22.089Z,102100.44
2022-11-13T00:14:48.436Z,102098.47
2022-11-13T00:17:15.781Z,102098.75
2022-11-13T00:19:42.088Z,102090.72
2022-11-13T00:22:08.402Z,102095.47
2022-11-13T00:24:34.925Z,102093.00
2022-11-13T00:27:01.294Z,102091.66
2022-11-13T00:29:27.845Z,102092.78
2022-11-13T00:31:54.177Z,102092.25
2022-11-13T00:34:41.481Z,102086.50
2022-11-13T00:37:06.897Z,102094.31
2022-11-13T00:39:33.398Z,102092.16
2022-11-13T00:41:59.813Z,102084.75
2022-11-13T00:44:26.330Z,102082.56
2022-11-13T00:46:52.674Z,102077.09
2022-11-13T00:49:18.972Z,102071.03
2022-11-13T00:51:45.518Z,102074.44
2022-11-13T00:54:11.881Z,102064.72
2022-11-13T00:56:38.396Z,102066.19
2022-11-13T00:59:04.820Z,102060.94
2022-11-13T01:01:31.366Z,102068.75
2022-11-13T01:03:57.956Z,102067.41
2022-11-13T01:06:26.595Z,102062.97
2022-11-13T01:08:58.297Z,102062.47
2022-11-13T01:11:28.025Z,102060.00
2022-11-13T01:13:56.242Z,102056.69
2022-11-13T01:16:25.230Z,102060.28
2022-11-13T01:18:55.328Z,102063.16
2022-11-13T01:21:24.898Z,102065.44
2022-11-13T01:23:51.367Z,102062.97
2022-11-13T01:26:24.781Z,102060.47
2022-11-13T01:28:51.328Z,102065.22
2022-11-13T01:31:21.213Z,102063.06
2022-11-13T01:33:48.740Z,102056.16
2022-11-13T01:36:24.534Z,102057.56
2022-11-13T01:38:51.740Z,102047.91
2022-11-13T01:41:23.998Z,102051.28
2022-11-13T01:43:52.002Z,102050.78
2022-11-13T01:46:28.751Z,102045.81
2022-11-13T01:49:12.311Z,102040.56
2022-11-13T01:51:47.754Z,102035.00
2022-11-13T01:54:20.863Z,102040.88
2022-11-13T01:56:48.228Z,102026.16
2022-11-13T01:59:20.202Z,102025.13
2022-11-13T02:01:46.692Z,102030.97
2022-11-13T02:04:13.232Z,102022.94
2022-11-13T02:06:44.703Z,102017.69
2022-11-13T02:09:13.908Z,102017.16
2022-11-13T02:11:41.310Z,102020.25
2022-11-13T02:14:09.457Z,102021.41
2022-11-13T02:16:37.778Z,102014.19
2022-11-13T02:19:11.203Z,102013.66
2022-11-13T02:21:52.848Z,102015.09
2022-11-13T02:24:29.252Z,102008.47
2022-11-13T02:27:01.254Z,102000.41
2022-11-13T02:29:27.753Z,102002.69
2022-11-13T02:31:54.120Z,102004.97
2022-11-13T02:34:20.524Z,101999.19
2022-11-13T02:36:47.213Z,101996.72
2022-11-13T02:39:14.351Z,101996.50
2022-11-13T02:41:41.097Z,101990.41
2022-11-13T02:44:08.757Z,101996.59
2022-11-13T02:46:36.297Z,101996.59
2022-11-13T02:49:02.917Z,101998.00
2022-11-13T02:51:29.703Z,101995.84
2022-11-13T02:53:56.325Z,102001.69
2022-11-13T02:56:22.842Z,101987.28
2022-11-13T02:58:49.184Z,101992.03
2022-11-13T03:01:15.592Z,101989.84
2022-11-13T03:03:57.171Z,101991.28
2022-11-13T03:06:24.249Z,101988.78
2022-11-13T03:08:50.548Z,101987.75
2022-11-13T03:11:17.205Z,101984.75
2022-11-13T03:13:43.562Z,101985.34
2022-11-13T03:16:13.190Z,101984.31
2022-11-13T03:18:40.223Z,101986.56
2022-11-13T03:21:09.370Z,101971.63
2022-11-13T03:23:35.947Z,101975.81
2022-11-13T03:26:12.367Z,101965.63
2022-11-13T03:28:38.713Z,101969.53
2022-11-13T03:31:05.744Z,101967.38
2022-11-13T03:33:32.528Z,101965.19
2022-11-13T03:35:59.008Z,101959.41
2022-11-13T03:38:26.085Z,101955.59
2022-11-13T03:40:53.009Z,101957.03
2022-11-13T03:43:19.514Z,101965.13
2022-11-13T03:45:47.034Z,101956.56
2022-11-13T03:48:14.993Z,101957.19
2022-11-13T03:50:47.139Z,101951.72
2022-11-13T03:53:14.719Z,101959.22
2022-11-13T03:55:43.001Z,101961.75
2022-11-13T03:58:11.428Z,101954.84
2022-11-13T04:00:41.617Z,101956.78
2022-11-13T04:03:08.292Z,101945.41
2022-11-13T04:05:34.787Z,101948.47
2022-11-13T04:08:01.135Z,101948.47
2022-11-13T04:10:27.883Z,101947.63
2022-11-13T04:12:54.209Z,101939.63
2022-11-13T04:15:20.762Z,101945.19
2022-11-13T04:17:48.077Z,101941.59
2022-11-13T04:20:14.725Z,101943.00
2022-11-13T04:22:41.253Z,101939.38
2022-11-13T04:25:09.361Z,101944.13
2022-11-13T04:27:35.812Z,101937.19
2022-11-13T04:30:03.391Z,101932.28
2022-11-13T04:32:29.944Z,101924.25
2022-11-13T04:34:56.302Z,101925.16
2022-11-13T04:37:22.827Z,101922.47
2022-11-13T04:39:49.321Z,101925.81
2022-11-13T04:42:34.987Z,101927.22
2022-11-13T04:45:01.360Z,101923.94
2022-11-13T04:47:27.693Z,101919.78
2022-11-13T04:49:53.985Z,101922.03
2022-11-13T04:52:21.380Z,101922.34
2022-11-13T04:54:47.699Z,101916.00
2022-11-13T04:57:14.091Z,101917.09
2022-11-13T04:59:40.442Z,101917.38
2022-11-13T05:02:07.132Z,101915.75
2022-11-13T05:04:33.637Z,101904.13
2022-11-13T05:07:00.227Z,101903.28
2022-11-13T05:09:26.647Z,101904.41
2022-11-13T05:11:52.955Z,101905.25
2022-11-13T05:14:19.306Z,101897.22
2022-11-13T05:16:45.772Z,101893.63
2022-11-13T05:19:12.089Z,101897.53
2022-11-13T05:21:39.851Z,101900.31
2022-11-13T05:24:06.824Z,101897.81
2022-11-13T05:26:33.247Z,101890.31
2022-11-13T05:29:00.533Z,101895.03
2022-11-13T05:31:27.301Z,101883.13
2022-11-13T05:33:55.018Z,101871.53
2022-11-13T05:36:22.255Z,101878.19
2022-11-13T05:38:49.045Z,101867.38
2022-11-13T05:41:17.886Z,101864.91
2022-11-13T05:43:44.685Z,101864.34
2022-11-13T05:46:17.693Z,101859.13
2022-11-13T05:48:44.885Z,101861.06
2022-11-13T05:51:18.500Z,101858.59
2022-11-13T05:53:45.241Z,101857.47
2022-11-13T05:56:20.734Z,101856.09
2022-11-13T05:58:47.973Z,101853.34
2022-11-13T06:01:34.637Z,101855.09
2022-11-13T06:04:01.491Z,101851.47
2022-11-13T06:06:29.607Z,101848.47
2022-11-13T06:08:57.287Z,101851.00
2022-11-13T06:11:25.880Z,101845.78
2022-11-13T06:13:53.203Z,101841.31
2022-11-13T06:16:25.833Z,101852.97
2022-11-13T06:18:57.034Z,101840.81
2022-11-13T06:21:25.849Z,101843.59
2022-11-13T06:23:52.900Z,101836.69
2022-11-13T06:26:22.639Z,101843.66
2022-11-13T06:28:49.317Z,101841.69
2022-11-13T06:31:20.768Z,101840.38
2022-11-13T06:33:47.679Z,101836.75
2022-11-13T06:36:35.636Z,101836.22
2022-11-13T06:39:05.057Z,101839.50
2022-11-13T06:41:32.531Z,101828.72
2022-11-13T06:44:02.941Z,101826.28
2022-11-13T06:46:30.000Z,101829.03
2022-11-13T06:48:56.929Z,101829.31
2022-11-13T06:51:27.127Z,101827.97
2022-11-13T06:53:53.584Z,101827.69
2022-11-13T06:56:21.139Z,101822.75
2022-11-13T06:58:47.719Z,101826.59
2022-11-13T07:01:19.272Z,101819.44
2022-11-13T07:03:45.928Z,101825.28
2022-11-13T07:06:15.152Z,101820.88
2022-11-13T07:08:42.483Z,101818.09
2022-11-13T07:11:15.699Z,101818.38
2022-11-13T07:13:42.862Z,101813.38
2022-11-13T07:16:17.031Z,101812.25
2022-11-13T07:18:51.177Z,101807.53
2022-11-13T07:21:17.554Z,101805.81
2022-11-13T07:23:48.112Z,101803.06
2022-11-13T07:26:14.595Z,101802.47
2022-11-13T07:28:41.129Z,101806.28
2022-11-13T07:31:07.993Z,101805.19
2022-11-13T07:33:34.454Z,101794.91
2022-11-13T07:36:01.306Z,101796.25
2022-11-13T07:38:28.063Z,101803.16
2022-11-13T07:40:54.935Z,101804.50
2022-11-13T07:43:21.330Z,101807.19
2022-11-13T07:45:47.715Z,101799.94
2022-11-13T07:48:14.139Z,101801.00
2022-11-13T07:50:40.709Z,101807.28
2022-11-13T07:53:08.723Z,101798.94
2022-11-13T07:55:35.945Z,101789.72
2022-11-13T07:58:03.353Z,101794.38
2022-11-13T08:00:31.319Z,101790.69
2022-11-13T08:02:57.908Z,101796.97
2022-11-13T08:05:25.577Z,101796.09
2022-11-13T08:07:52.912Z,101800.44
2022-11-13T08:10:20.705Z,101803.41
2022-11-13T08:12:47.235Z,101792.56
2022-11-13T08:15:14.396Z,101790.84
2022-11-13T08:17:41.299Z,101788.28
2022-11-13T08:20:08.977Z,101787.88
2022-11-13T08:22:35.405Z,101783.91
2022-11-13T08:25:01.764Z,101779.63
2022-11-13T08:27:28.815Z,101783.13
2022-11-13T08:29:55.254Z,101779.34
2022-11-13T08:32:22.885Z,101773.09
2022-11-13T08:34:49.348Z,101767.63
2022-11-13T08:37:16.248Z,101757.47
2022-11-13T08:39:42.625Z,101774.25
2022-11-13T08:42:09.181Z,101764.06
2022-11-13T08:44:35.530Z,101760.25
2022-11-13T08:47:02.025Z,101748.94
2022-11-13T08:49:28.403Z,101757.38
2022-11-13T08:51:54.766Z,101744.09
2022-11-13T08:54:21.134Z,101746.66
2022-11-13T08:56:52.963Z,101746.44
2022-11-13T08:59:23.598Z,101747.03
2022-11-13T09:01:50.625Z,101745.66
2022-11-13T09:04:17.010Z,101742.63
2022-11-13T09:06:43.436Z,101741.56
2022-11-13T09:09:10.132Z,101750.47
2022-11-13T09:11:36.577Z,101749.91
2022-11-13T09:14:02.897Z,101744.06
2022-11-13T09:16:29.363Z,101748.56
2022-11-13T09:18:55.693Z,101747.13
2022-11-13T09:21:22.259Z,101745.72
2022-11-13T09:23:48.817Z,101740.41
2022-11-13T09:26:15.330Z,101731.75
2022-11-13T09:28:41.756Z,101725.56
2022-11-13T09:31:08.377Z,101726.59
2022-11-13T09:33:35.515Z,101722.34
2022-11-13T09:36:02.776Z,101714.19
2022-11-13T09:38:32.474Z,101714.34
2022-11-13T09:41:05.375Z,101712.56
2022-11-13T09:43:40.839Z,101711.09
2022-11-13T09:46:30.400Z,101709.28
2022-11-13T09:49:02.573Z,101714.06
2022-11-13T09:51:33.584Z,101718.16
2022-11-13T09:54:04.962Z,101708.28
2022-11-13T09:56:35.799Z,101712.03
2022-11-13T09:59:29.019Z,101700.84
2022-11-13T10:02:20.972Z,101700.13
2022-11-13T10:05:19.794Z,101697.47
2022-11-13T10:08:05.917Z,101706.75
2022-11-13T10:10:44.207Z,101701.94
2022-11-13T10:13:14.592Z,101701.25
2022-11-13T10:15:44.958Z,101693.28
2022-11-13T10:18:27.030Z,101691.59
2022-11-13T10:20:57.970Z,101700.09
2022-11-13T10:23:35.103Z,101695.56
2022-11-13T10:26:29.556Z,101692.41
2022-11-13T10:29:11.733Z,101684.06
2022-11-13T10:31:50.249Z,101685.28
2022-11-13T10:34:17.916Z,101687.78
2022-11-13T10:37:05.949Z,101680.72
2022-11-13T10:39:41.795Z,101678.31
2022-11-13T10:42:31.608Z,101675.94
2022-11-13T10:45:00.564Z,101664.28
2022-11-13T10:48:01.975Z,101662.19
2022-11-13T10:50:31.133Z,101652.97
2022-11-13T10:52:57.954Z,101653.00
2022-11-13T10:55:41.563Z,101652.41
2022-11-13T10:58:13.606Z,101639.09
2022-11-13T11:00:44.502Z,101633.13
2022-11-13T11:03:17.927Z,101633.00
2022-11-13T11:05:59.595Z,101623.63
2022-11-13T11:08:33.754Z,101619.66
2022-11-13T11:11:21.237Z,101615.53
2022-11-13T11:13:51.244Z,101603.78
2022-11-13T11:16:23.698Z,101598.41
2022-11-13T11:18:57.953Z,101590.28
2022-11-13T11:21:34.994Z,101598.53
2022-11-13T11:24:34.749Z,101593.59
2022-11-13T11:27:23.110Z,101590.25
2022-11-13T11:29:53.216Z,101589.34
2022-11-13T11:32:33.577Z,101591.16
2022-11-13T11:35:14.616Z,101588.94
2022-11-13T11:38:07.549Z,101572.25
2022-11-13T11:40:42.405Z,101567.63
2022-11-13T11:43:34.526Z,101572.59
2022-11-13T11:46:05.167Z,101570.41
2022-11-13T11:48:33.142Z,101563.00
2022-11-13T11:51:05.526Z,101557.91
2022-11-13T11:53:45.800Z,101559.63
2022-11-13T11:56:33.550Z,101555.78
2022-11-13T11:59:22.497Z,101556.66
2022-11-13T12:02:28.914Z,101556.41
2022-11-13T12:05:02.768Z,101548.50
2022-11-13T12:07:29.548Z,101545.81
2022-11-13T12:10:04.253Z,101541.09
2022-11-13T12:12:49.033Z,101546.81
2022-11-13T12:15:23.557Z,101548.97
2022-11-13T12:18:22.355Z,101532.91
2022-11-13T12:21:07.901Z,101533.06
2022-11-13T12:23:35.747Z,101523.22
2022-11-13T12:26:23.543Z,101522.47
2022-11-13T12:29:10.999Z,101516.19
2022-11-13T12:31:59.261Z,101517.88
2022-11-13T12:34:35.421Z,101510.66
2022-11-13T12:37:10.689Z,101512.38
2022-11-13T12:39:43.210Z,101506.88
2022-11-13T12:42:18.006Z,101506.13
2022-11-13T12:45:00.503Z,101502.56
2022-11-13T12:47:27.369Z,101490.25
2022-11-13T12:50:05.565Z,101490.69
2022-11-13T12:52:31.916Z,101485.16
2022-11-13T12:55:07.385Z,101484.81
2022-11-13T12:57:33.853Z,101481.28
2022-11-13T13:00:28.473Z,101484.91
2022-11-13T13:03:11.322Z,101487.06
2022-11-13T13:06:16.607Z,101478.25
2022-11-13T13:09:20.729Z,101470.69
2022-11-13T13:12:13.596Z,101465.53
2022-11-13T13:15:04.125Z,101455.13
2022-11-13T13:17:30.573Z,101459.63
2022-11-13T13:20:02.288Z,101455.19
2022-11-13T13:22:33.121Z,101451.59
2022-11-13T13:25:04.174Z,101437.13
2022-11-13T13:27:37.491Z,101429.13
2022-11-13T13:30:26.205Z,101424.28
2022-11-13T13:33:20.728Z,101425.09
2022-11-13T13:35:57.646Z,101425.97
2022-11-13T13:38:26.730Z,101422.75
2022-11-13T13:41:17.147Z,101421.56
2022-11-13T13:44:14.554Z,101423.56
2022-11-13T13:46:41.786Z,101416.78
2022-11-13T13:49:14.498Z,101409.53
2022-11-13T13:51:44.183Z,101404.72
2022-11-13T13:54:22.348Z,101409.94
2022-11-13T13:56:49.346Z,101410.00
2022-11-13T13:59:22.203Z,101399.88
2022-11-13T14:01:58.317Z,101399.47
2022-11-13T14:04:27.884Z,101393.88
2022-11-13T14:06:56.968Z,101395.91
2022-11-13T14:09:28.380Z,101397.06
2022-11-13T14:12:09.607Z,101389.00
2022-11-13T14:14:39.516Z,101389.81
2022-11-13T14:17:07.070Z,101385.78
2022-11-13T14:19:33.815Z,101389.41
2022-11-13T14:22:02.781Z,101387.81
2022-11-13T14:24:34.364Z,101380.97
2022-11-13T14:27:07.369Z,101374.53
2022-11-13T14:30:02.238Z,101374.09
2022-11-13T14:32:31.994Z,101369.69
2022-11-13T14:35:01.733Z,101370.53
2022-11-13T14:37:44.690Z,101364.03
2022-11-13T14:40:23.232Z,101359.94
2022-11-13T14:42:59.885Z,101370.84
2022-11-13T14:45:33.002Z,101366.41
2022-11-13T14:48:01.998Z,101375.63
2022-11-13T14:50:35.480Z,101361.81
2022-11-13T14:53:07.997Z,101365.34
2022-11-13T14:55:39.131Z,101358.81
2022-11-13T14:58:05.983Z,101350.59
2022-11-13T15:00:35.238Z,101358.06
2022-11-13T15:03:03.764Z,101353.09
2022-11-13T15:05:30.402Z,101342.50
2022-11-13T15:07:57.429Z,101341.22
2022-11-13T15:10:27.681Z,101353.50
2022-11-13T15:12:54.433Z,101338.41
2022-11-13T15:15:27.007Z,101350.69
2022-11-13T15:17:54.592Z,101352.94
2022-11-13T15:20:28.709Z,101340.66
2022-11-13T15:22:57.103Z,101341.78
2022-11-13T15:25:25.162Z,101341.28
2022-11-13T15:27:53.295Z,101334.75
2022-11-13T15:30:20.190Z,101343.94
2022-11-13T15:32:48.005Z,101343.44
2022-11-13T15:35:18.002Z,101339.22
2022-11-13T15:37:45.240Z,101340.72
2022-11-13T15:40:13.079Z,101329.69
2022-11-13T15:42:40.897Z,101332.31
2022-11-13T15:45:12.852Z,101328.44
2022-11-13T15:47:39.566Z,101333.03
2022-11-13T15:50:16.574Z,101325.44
2022-11-13T15:52:49.025Z,101321.03
2022-11-13T15:55:30.463Z,101320.28
2022-11-13T15:57:58.443Z,101312.34
2022-11-13T16:00:27.314Z,101305.56
2022-11-13T16:02:56.484Z,101297.19
2022-11-13T16:05:29.178Z,101294.69
2022-11-13T16:07:56.650Z,101290.81
2022-11-13T16:10:25.086Z,101288.81
2022-11-13T16:12:52.824Z,101294.97
2022-11-13T16:15:19.925Z,101290.22
2022-11-13T16:17:49.345Z,101285.84
2022-11-13T16:20:18.819Z,101284.84
2022-11-13T16:22:45.762Z,101287.44
2022-11-13T16:25:18.707Z,101294.03
2022-11-13T16:27:45.968Z,101299.06
2022-11-13T16:30:16.990Z,101296.81
2022-11-13T16:32:43.497Z,101291.03
2022-11-13T16:35:19.924Z,101287.06
2022-11-13T16:37:46.428Z,101284.06
2022-11-13T16:40:26.561Z,101289.81
2022-11-13T16:42:53.617Z,101281.41
2022-11-13T16:45:21.023Z,101287.38
2022-11-13T16:47:47.797Z,101289.00
2022-11-13T16:50:26.825Z,101279.41
2022-11-13T16:52:53.314Z,101279.53
2022-11-13T16:55:19.670Z,101269.28
2022-11-13T16:57:46.128Z,101273.81
2022-11-13T17:00:16.167Z,101275.06
2022-11-13T17:02:43.122Z,101264.78
2022-11-13T17:05:14.198Z,101267.22
2022-11-13T17:07:41.315Z,101267.34
2022-11-13T17:10:32.403Z,101266.16
2022-11-13T17:13:00.059Z,101263.47
2022-11-13T17:15:26.454Z,101263.94
2022-11-13T17:17:57.048Z,101260.31
2022-11-13T17:20:26.106Z,101259.97
2022-11-13T17:22:52.468Z,101258.81
2022-11-13T17:25:20.392Z,101261.16
2022-11-13T17:27:47.138Z,101262.31
2022-11-13T17:30:13.984Z,101262.31
2022-11-13T17:32:40.508Z,101266.66
2022-11-13T17:35:07.363Z,101260.13
2022-11-13T17:37:33.911Z,101268.41
2022-11-13T17:40:00.334Z,101269.13
2022-11-13T17:42:28.821Z,101267.72
2022-11-13T17:44:55.473Z,101255.97
2022-11-13T17:47:22.009Z,101259.13
2022-11-13T17:49:48.374Z,101264.06
2022-11-13T17:52:14.833Z,101254.97
2022-11-13T17:54:41.343Z,101257.09
2022-11-13T17:57:10.449Z,101252.78
2022-11-13T17:59:36.903Z,101248.50
2022-11-13T18:02:03.393Z,101245.34
2022-11-13T18:04:29.762Z,101243.84
2022-11-13T18:06:56.692Z,101237.53
2022-11-13T18:09:23.059Z,101235.66
2022-11-13T18:11:49.370Z,101231.47
2022-11-13T18:14:16.119Z,101220.88
2022-11-13T18:16:42.447Z,101228.31
2022-11-13T18:19:09.514Z,101223.78
2022-11-13T18:21:37.416Z,101238.41
2022-11-13T18:24:07.424Z,101237.59
2022-11-13T18:26:36.660Z,101228.41
2022-11-13T18:29:03.856Z,101235.53
2022-11-13T18:31:30.567Z,101221.88
2022-11-13T18:34:02.594Z,101223.75
2022-11-13T18:36:29.166Z,101230.13
2022-11-13T18:38:58.307Z,101225.63
2022-11-13T18:41:25.692Z,101223.88
2022-11-13T18:43:52.275Z,101227.69
2022-11-13T18:46:21.018Z,101229.06
2022-11-13T18:48:48.650Z,101228.47
2022-11-13T18:51:21.108Z,101227.88
2022-11-13T18:53:49.287Z,101232.19
2022-11-13T18:56:24.850Z,101236.81
2022-11-13T18:58:55.501Z,101233.22
2022-11-13T19:01:27.967Z,101226.31
2022-11-13T19:06:46.483Z,101214.47
2022-11-13T19:09:16.329Z,101210.03
2022-11-13T19:11:43.929Z,101202.00
2022-11-13T19:14:14.323Z,101208.31
2022-11-13T19:16:42.324Z,101205.84
2022-11-13T19:19:21.508Z,101204.06
2022-11-13T19:21:48.156Z,101210.81
2022-11-13T19:24:15.166Z,101207.09
2022-11-13T19:26:43.479Z,101203.34
2022-11-13T19:29:10.601Z,101196.50
2022-11-13T19:31:37.041Z,101191.94
2022-11-13T19:34:07.538Z,101192.97
2022-11-13T19:36:34.693Z,101193.59
2022-11-13T19:39:01.347Z,101197.91
2022-11-13T19:41:29.138Z,101196.16
2022-11-13T19:43:58.190Z,101196.34
2022-11-13T19:46:24.495Z,101197.38
2022-11-13T19:48:52.110Z,101191.19
2022-11-13T19:51:20.630Z,101187.78
2022-11-13T19:53:47.443Z,101179.97
2022-11-13T19:56:15.845Z,101190.88
2022-11-13T19:58:44.230Z,101180.22
2022-11-13T20:01:12.958Z,101199.13
2022-11-13T20:03:39.967Z,101188.53
2022-11-13T20:06:07.956Z,101193.00
2022-11-13T20:08:35.410Z,101190.41
2022-11-13T20:11:07.606Z,101174.56
2022-11-13T20:13:36.503Z,101174.75
2022-11-13T20:16:07.570Z,101175.94
2022-11-13T20:18:34.197Z,101169.75
2022-11-13T20:21:00.962Z,101163.22
2022-11-13T20:23:28.082Z,101159.97
2022-11-13T20:25:56.519Z,101151.97
2022-11-13T20:28:24.153Z,101155.56
2022-11-13T20:30:52.431Z,101155.22
2022-11-13T20:33:22.599Z,101158.47
2022-11-13T20:35:55.698Z,101155.38
2022-11-13T20:38:22.194Z,101151.06
2022-11-13T20:40:48.809Z,101144.84
2022-11-13T20:43:17.062Z,101144.84
2022-11-13T20:45:43.665Z,101133.34
2022-11-13T20:48:10.315Z,101139.75
2022-11-13T20:50:37.384Z,101138.94
2022-11-13T20:53:05.143Z,101142.88
2022-11-13T20:55:31.815Z,101144.50
2022-11-13T20:57:58.212Z,101149.25
2022-11-13T21:00:24.700Z,101154.03
2022-11-13T21:02:52.571Z,101150.75
2022-11-13T21:05:18.925Z,101149.94
2022-11-13T21:07:45.580Z,101151.91
2022-11-13T21:10:11.899Z,101143.06
2022-11-13T21:12:38.225Z,101143.41
2022-11-13T21:15:04.980Z,101142.09
2022-11-13T21:17:31.323Z,101127.22
2022-11-13T21:19:57.979Z,101125.94
2022-11-13T21:22:24.542Z,101133.78
2022-11-13T21:24:50.991Z,101126.59
2022-11-13T21:27:17.459Z,101127.75
2022-11-13T21:29:43.966Z,101115.81
2022-11-13T21:32:10.482Z,101123.66
2022-11-13T21:34:37.794Z,101126.78
2022-11-13T21:37:04.491Z,101123.19
2022-11-13T21:39:31.132Z,101115.47
2022-11-13T21:41:57.864Z,101115.81
2022-11-13T21:44:24.362Z,101106.66
2022-11-13T21:46:50.850Z,101106.50
2022-11-13T21:49:17.165Z,101108.81
2022-11-13T21:51:43.764Z,101110.28
2022-11-13T21:54:10.238Z,101104.59
2022-11-13T21:56:38.259Z,101098.88
2022-11-13T21:59:05.707Z,101091.84
2022-11-13T22:01:37.751Z,101090.41
2022-11-13T22:04:04.792Z,101090.94
2022-11-13T22:06:33.018Z,101095.06
2022-11-13T22:09:04.529Z,101089.53
2022-11-13T22:11:32.954Z,101089.38
2022-11-13T22:14:00.267Z,101087.59
2022-11-13T22:16:31.899Z,101082.19
2022-11-13T22:19:00.146Z,101084.50
2022-11-13T22:21:29.078Z,101071.25
2022-11-13T22:23:56.717Z,101076.34
2022-11-13T22:26:24.813Z,101077.81
2022-11-13T22:28:53.338Z,101074.56
2022-11-13T22:31:21.063Z,101071.78
2022-11-13T22:33:51.402Z,101070.63
2022-11-13T22:36:25.910Z,101067.69
2022-11-13T22:38:52.843Z,101068.03
2022-11-13T22:41:24.729Z,101064.75
2022-11-13T22:43:53.594Z,101064.28
2022-11-13T22:46:22.499Z,101061.50
2022-11-13T22:48:50.514Z,101068.19
2022-11-13T22:51:19.675Z,101060.69
2022-11-13T22:53:56.501Z,101070.16
2022-11-13T22:56:24.862Z,101074.25
2022-11-13T22:58:53.988Z,101067.88
2022-11-13T23:01:23.066Z,101065.91
2022-11-13T23:03:51.145Z,101062.66
2022-11-13T23:06:23.634Z,101057.09
2022-11-13T23:08:50.573Z,101054.63
2022-11-13T23:11:18.866Z,101062.47
2022-11-13T23:13:48.801Z,101057.25
2022-11-13T23:16:16.041Z,101044.81
2022-11-13T23:18:42.808Z,101045.16
2022-11-13T23:21:10.862Z,101034.69
2022-11-13T23:23:37.688Z,101037.81
2022-11-13T23:26:06.676Z,101038.81
2022-11-13T23:28:33.331Z,101024.28
2022-11-13T23:31:01.986Z,101026.06
2022-11-13T23:33:28.673Z,101024.28
2022-11-13T23:35:55.118Z,101018.56
2022-11-13T23:38:24.233Z,101019.41
2022-11-13T23:40:58.454Z,101009.75
2022-11-13T23:43:41.674Z,101014.66
2022-11-13T23:46:12.175Z,101012.69
2022-11-13T23:48:40.158Z,101007.97
2022-11-13T23:51:07.241Z,101001.78
2022-11-13T23:53:33.700Z,101001.09
2022-11-13T23:56:00.295Z,100999.31
2022-11-13T23:58:27.165Z,100998.66
